East Middlebury, Vermont
Current Conditions -  °F | °C
As of 8:55 PM on Wednesday 26 Nov 2014 (Local Time) from K6B0 Reporting Station
Light Snow Light Snow  
Wind Chill: 22°   Ceiling: 500
Heat Index: 29°   Visibility: 1.5mi
Dew Point: 29°   Wind: 7mph
Humidity: 100%   Direction: 360°N
Pressure: 29.96"   Gusts: NA
Location:  43.97°N, 73.11°W
Report Text: K6B0 270155Z AUTO 36006KT 1 1/2SM -SN OVC005 M02/M02 A2996 RMK AO2 P0001 T10161016
Loading
Personal Weather Stations






























Interactive Weather Map New forecast layout! Learn more

10-Day Weather Forecast

Advertisements
Track Severe Weather on mobile